Time;durP1;ratioP1;P1;durP2;ratioP2;P2;SDS_P1;SDS_P2;PMS_P1;PMS_P2;Temp;Humidity;BMP_temperature;BMP_pressure;BME280_temperature;BME280_humidity;BME280_pressure;Samples;Min_cycle;Max_cycle;Signal;HPM_P1;HPM_P2
2021/11/14 00:00:07;;;;;;;;;;;;;;;;;;5049942;28;19916;-49
2021/11/14 00:02:33;;;;;;;;;;;;;;;;;;5060568;28;19908;-48
2021/11/14 00:04:59;;;;;;;;;;;;;;;;;;5064528;28;19915;-46
2021/11/14 00:07:25;;;;;;;;;;;;;;;;;;5066306;28;19913;-49
2021/11/14 00:09:51;;;;;;;;;;;;;;;;;;5066332;28;20295;-50
2021/11/14 00:12:16;;;;;;;;;;;;;;;;;;5065019;28;20156;-47
2021/11/14 00:14:42;;;;;;;;;;;;;;;;;;5066996;28;19908;-48
2021/11/14 00:17:09;;;;;;;;;;;;;;;;;;5064504;28;20307;-49
2021/11/14 00:19:36;;;;;;;;;;;;;;;;;;5046749;28;19913;-50
2021/11/14 00:22:02;;;;;;;;;;;;;;;;;;5066047;28;20407;-49
2021/11/14 00:24:29;;;;;;;;;;;;;;;;;;5061370;28;19919;-47
2021/11/14 00:26:55;;;;;;;;;;;;;;;;;;5045363;28;20548;-48
2021/11/14 00:29:21;;;;;;;;;;;;;;;;;;5052304;28;19944;-49
2021/11/14 00:31:47;;;;;;;;;;;;;;;;;;5066350;28;19909;-47
2021/11/14 00:34:13;;;;;;;;;;;;;;;;;;5065123;28;19912;-48
2021/11/14 00:36:41;;;;;;;;;;;;;;;;;;5064283;28;19912;-47
2021/11/14 00:39:07;;;;;;;;;;;;;;;;;;5065735;28;19908;-47
2021/11/14 00:41:33;;;;;;;;;;;;;;;;;;5065721;28;19908;-50
2021/11/14 00:44:00;;;;;;;;;;;;;;;;;;5065855;28;20314;-47
2021/11/14 00:46:26;;;;;;;;;;;;;;;;;;5065319;28;19916;-49
2021/11/14 00:48:52;;;;;;;;;;;;;;;;;;5065694;28;20350;-49
2021/11/14 00:51:20;;;;;;;;;;;;;;;;;;5063917;28;19954;-49
2021/11/14 00:53:45;;;;;;;;;;;;;;;;;;5064237;28;20032;-49
2021/11/14 00:56:11;;;;;;;;;;;;;;;;;;5065797;28;20014;-47
2021/11/14 00:58:37;;;;;;;;;;;;;;;;;;5064228;28;20314;-51
2021/11/14 01:01:03;;;;;;;;;;;;;;;;;;5065728;28;19908;-45
2021/11/14 01:03:29;;;;;;;;;;;;;;;;;;5065192;28;20354;-49
2021/11/14 01:05:55;;;;;;;;;;;;;;;;;;5064028;28;19926;-49
2021/11/14 01:08:22;;;;;;;;;;;;;;;;;;5065142;28;19977;-49
2021/11/14 01:10:48;;;;;;;;;;;;;;;;;;5065155;28;19978;-48
2021/11/14 01:13:14;;;;;;;;;;;;;;;;;;5064504;28;19913;-48
2021/11/14 01:15:40;;;;;;;;;;;;;;;;;;5065679;28;19915;-49
2021/11/14 01:18:05;;;;;;;;;;;;;;;;;;5065007;28;20347;-48
2021/11/14 01:20:31;;;;;;;;;;;;;;;;;;5064717;28;19913;-46
2021/11/14 01:22:57;;;;;;;;;;;;;;;;;;5065252;28;20007;-48
2021/11/14 01:25:23;;;;;;;;;;;;;;;;;;5064758;28;20452;-49
2021/11/14 01:27:49;;;;;;;;;;;;;;;;;;5065029;28;19992;-48
2021/11/14 01:30:15;;;;;;;;;;;;;;;;;;5064568;28;20007;-47
2021/11/14 01:32:41;;;;;;;;;;;;;;;;;;5065507;28;19957;-48
2021/11/14 01:35:07;;;;;;;;;;;;;;;;;;5064644;28;19961;-47
2021/11/14 01:37:34;;;;;;;;;;;;;;;;;;5060954;28;20188;-47
2021/11/14 01:40:01;;;;;;;;;;;;;;;;;;5052311;28;19913;-48
2021/11/14 01:42:27;;;;;;;;;;;;;;;;;;5049915;28;19913;-47
2021/11/14 01:44:53;;;;;;;;;;;;;;;;;;5057116;28;19913;-47
2021/11/14 01:47:19;;;;;;;;;;;;;;;;;;5044118;28;19909;-49
2021/11/14 01:49:44;;;;;;;;;;;;;;;;;;5051606;28;20050;-50
2021/11/14 01:52:10;;;;;;;;;;;;;;;;;;5065281;28;19919;-46
2021/11/14 01:54:37;;;;;;;;;;;;;;;;;;5064506;28;19913;-51
2021/11/14 01:57:03;;;;;;;;;;;;;;;;;;5051657;28;19924;-48
2021/11/14 01:59:33;;;;;;;;;;;;;;;;;;5062779;28;20378;-50
2021/11/14 02:01:59;;;;;;;;;;;;;;;;;;5060486;28;19919;-50
2021/11/14 02:04:25;;;;;;;;;;;;;;;;;;5043680;28;20811;-48
2021/11/14 02:06:51;;;;;;;;;;;;;;;;;;5044621;28;19913;-46
2021/11/14 02:09:17;;;;;;;;;;;;;;;;;;5042915;28;19916;-50
2021/11/14 02:11:43;;;;;;;;;;;;;;;;;;5045374;28;19917;-48
2021/11/14 02:14:10;;;;;;;;;;;;;;;;;;5051312;28;19912;-50
2021/11/14 02:16:36;;;;;;;;;;;;;;;;;;5051804;28;19920;-47
2021/11/14 02:19:02;;;;;;;;;;;;;;;;;;5045257;28;20446;-49
2021/11/14 02:21:28;;;;;;;;;;;;;;;;;;5055165;28;20335;-50
2021/11/14 02:23:53;;;;;;;;;;;;;;;;;;5066855;28;19908;-50
2021/11/14 02:26:22;;;;;;;;;;;;;;;;;;5066439;28;19915;-49
2021/11/14 02:28:48;;;;;;;;;;;;;;;;;;5066605;28;19908;-50
2021/11/14 02:31:14;;;;;;;;;;;;;;;;;;5066728;28;19916;-46
2021/11/14 02:33:40;;;;;;;;;;;;;;;;;;5066540;28;19954;-50
2021/11/14 02:36:06;;;;;;;;;;;;;;;;;;5064977;28;19956;-49
2021/11/14 02:38:32;;;;;;;;;;;;;;;;;;5066070;28;19924;-49
2021/11/14 02:40:58;;;;;;;;;;;;;;;;;;5066576;28;20372;-48
2021/11/14 02:43:24;;;;;;;;;;;;;;;;;;5066173;28;19962;-50
2021/11/14 02:45:50;;;;;;;;;;;;;;;;;;5064499;28;19999;-47
2021/11/14 02:48:16;;;;;;;;;;;;;;;;;;5066071;28;19951;-49
2021/11/14 02:50:42;;;;;;;;;;;;;;;;;;5061703;28;19925;-49
2021/11/14 02:53:08;;;;;;;;;;;;;;;;;;5070945;28;20003;-48
2021/11/14 02:55:33;;;;;;;;;;;;;;;;;;5070116;28;19924;-52
2021/11/14 02:57:59;;;;;;;;;;;;;;;;;;5069898;28;19912;-50
2021/11/14 03:00:25;;;;;;;;;;;;;;;;;;5069533;28;19916;-50
2021/11/14 03:02:51;;;;;;;;;;;;;;;;;;5069527;28;19917;-51
2021/11/14 03:05:17;;;;;;;;;;;;;;;;;;5061755;28;19920;-51
2021/11/14 03:07:43;;;;;;;;;;;;;;;;;;5049702;28;19935;-51
2021/11/14 03:10:09;;;;;;;;;;;;;;;;;;5049738;28;19909;-50
2021/11/14 03:12:35;;;;;;;;;;;;;;;;;;5049697;28;19959;-49
2021/11/14 03:15:01;;;;;;;;;;;;;;;;;;5049761;28;19997;-51
2021/11/14 03:17:27;;;;;;;;;;;;;;;;;;5047637;28;19920;-48
2021/11/14 03:19:53;;;;;;;;;;;;;;;;;;5049252;28;19919;-50
2021/11/14 03:22:19;;;;;;;;;;;;;;;;;;5049241;28;19940;-47
2021/11/14 03:24:45;;;;;;;;;;;;;;;;;;5049388;28;19962;-49
2021/11/14 03:27:11;;;;;;;;;;;;;;;;;;5049220;28;19917;-49
2021/11/14 03:29:37;;;;;;;;;;;;;;;;;;5066674;28;19955;-51
2021/11/14 03:32:03;;;;;;;;;;;;;;;;;;5069281;28;19909;-50
2021/11/14 03:34:29;;;;;;;;;;;;;;;;;;5068894;28;19909;-47
2021/11/14 03:36:55;;;;;;;;;;;;;;;;;;5069091;28;19913;-50
2021/11/14 03:39:21;;;;;;;;;;;;;;;;;;5069068;28;19942;-48
2021/11/14 03:41:46;;;;;;;;;;;;;;;;;;5067918;28;19943;-51
2021/11/14 03:44:12;;;;;;;;;;;;;;;;;;5051410;28;19977;-51
2021/11/14 03:46:38;;;;;;;;;;;;;;;;;;5048583;28;19916;-48
2021/11/14 03:49:04;;;;;;;;;;;;;;;;;;5049505;28;19916;-50
2021/11/14 03:51:30;;;;;;;;;;;;;;;;;;5048726;28;19909;-52
2021/11/14 03:53:56;;;;;;;;;;;;;;;;;;5048996;28;19913;-50
2021/11/14 03:56:22;;;;;;;;;;;;;;;;;;5048541;28;19916;-50
2021/11/14 03:58:48;;;;;;;;;;;;;;;;;;5059531;28;19920;-51
2021/11/14 04:01:14;;;;;;;;;;;;;;;;;;5062584;28;20387;-51
2021/11/14 04:03:40;;;;;;;;;;;;;;;;;;5048419;28;19909;-48
2021/11/14 04:06:06;;;;;;;;;;;;;;;;;;5049374;28;19940;-48
2021/11/14 04:08:32;;;;;;;;;;;;;;;;;;5059281;28;19920;-50
2021/11/14 04:10:59;;;;;;;;;;;;;;;;;;5068371;28;19963;-47
2021/11/14 04:13:26;;;;;;;;;;;;;;;;;;5068256;28;19960;-49
2021/11/14 04:15:52;;;;;;;;;;;;;;;;;;5064150;28;19960;-50
2021/11/14 04:18:18;;;;;;;;;;;;;;;;;;5056775;28;19948;-51
2021/11/14 04:20:44;;;;;;;;;;;;;;;;;;5068263;28;19916;-51
2021/11/14 04:23:10;;;;;;;;;;;;;;;;;;5068548;28;19912;-48
2021/11/14 04:25:36;;;;;;;;;;;;;;;;;;5068898;28;19931;-46
2021/11/14 04:28:02;;;;;;;;;;;;;;;;;;5067043;28;19998;-49
2021/11/14 04:30:28;;;;;;;;;;;;;;;;;;5067914;28;19939;-48
2021/11/14 04:32:54;;;;;;;;;;;;;;;;;;5055464;28;19940;-50
2021/11/14 04:35:20;;;;;;;;;;;;;;;;;;5047805;28;19913;-48
2021/11/14 04:37:48;;;;;;;;;;;;;;;;;;5048239;28;19913;-50
2021/11/14 04:40:14;;;;;;;;;;;;;;;;;;5047686;28;20569;-47
2021/11/14 04:42:40;;;;;;;;;;;;;;;;;;5054034;28;20003;-50
2021/11/14 04:45:06;;;;;;;;;;;;;;;;;;5066690;28;19912;-49
2021/11/14 04:47:32;;;;;;;;;;;;;;;;;;5066402;28;19978;-49
2021/11/14 04:49:58;;;;;;;;;;;;;;;;;;5066433;28;19909;-50
2021/11/14 04:52:24;;;;;;;;;;;;;;;;;;5066442;28;19909;-48
2021/11/14 04:54:50;;;;;;;;;;;;;;;;;;5068327;28;19959;-49
2021/11/14 04:57:16;;;;;;;;;;;;;;;;;;5067508;28;19916;-50
2021/11/14 04:59:42;;;;;;;;;;;;;;;;;;5067306;28;19916;-48
2021/11/14 05:02:08;;;;;;;;;;;;;;;;;;5064822;28;20014;-50
2021/11/14 05:04:34;;;;;;;;;;;;;;;;;;5067162;28;19940;-49
2021/11/14 05:07:00;;;;;;;;;;;;;;;;;;5067486;28;19916;-50
2021/11/14 05:09:26;;;;;;;;;;;;;;;;;;5066008;28;19912;-49
2021/11/14 05:11:52;;;;;;;;;;;;;;;;;;5066323;28;19924;-51
2021/11/14 05:14:18;;;;;;;;;;;;;;;;;;5066739;28;20011;-47
2021/11/14 05:16:44;;;;;;;;;;;;;;;;;;5067317;28;19913;-47
2021/11/14 05:19:10;;;;;;;;;;;;;;;;;;5066012;28;19919;-47
2021/11/14 05:21:38;;;;;;;;;;;;;;;;;;5064220;28;20394;-46
2021/11/14 05:24:04;;;;;;;;;;;;;;;;;;5047442;28;19909;-50
2021/11/14 05:26:30;;;;;;;;;;;;;;;;;;5046976;28;19915;-48
2021/11/14 05:28:56;;;;;;;;;;;;;;;;;;5047016;28;19911;-49
2021/11/14 05:31:22;;;;;;;;;;;;;;;;;;5046976;28;20007;-46
2021/11/14 05:33:48;;;;;;;;;;;;;;;;;;5063621;28;19916;-50
2021/11/14 05:36:14;;;;;;;;;;;;;;;;;;5066687;28;19916;-47
2021/11/14 05:38:40;;;;;;;;;;;;;;;;;;5067085;28;19915;-51
2021/11/14 05:41:05;;;;;;;;;;;;;;;;;;5066918;28;20375;-51
2021/11/14 05:43:31;;;;;;;;;;;;;;;;;;5065330;28;19920;-50
2021/11/14 05:45:57;;;;;;;;;;;;;;;;;;5066947;28;19912;-50
2021/11/14 05:48:23;;;;;;;;;;;;;;;;;;5066013;28;19913;-49
2021/11/14 05:50:49;;;;;;;;;;;;;;;;;;5067354;28;19915;-48
2021/11/14 05:53:15;;;;;;;;;;;;;;;;;;5065026;28;20382;-50
2021/11/14 05:55:41;;;;;;;;;;;;;;;;;;5066823;28;19924;-50
2021/11/14 05:58:35;;;;;;;;;;;;;;;;;;5066565;28;19920;-50
2021/11/14 06:01:17;;;;;;;;;;;;;;;;;;5066468;28;19908;-50
2021/11/14 06:06:09;;;;;;;;;;;;;;;;;;5066790;28;20372;-49
2021/11/14 06:08:35;;;;;;;;;;;;;;;;;;5066392;28;19912;-50
2021/11/14 06:11:01;;;;;;;;;;;;;;;;;;5066296;28;19977;-51
2021/11/14 06:13:27;;;;;;;;;;;;;;;;;;5064872;28;19916;-50
2021/11/14 06:15:53;;;;;;;;;;;;;;;;;;5066435;28;19935;-51
2021/11/14 06:18:19;;;;;;;;;;;;;;;;;;5065299;28;19956;-49
2021/11/14 06:20:45;;;;;;;;;;;;;;;;;;5066608;28;19996;-50
2021/11/14 06:23:11;;;;;;;;;;;;;;;;;;5049491;28;19956;-48
2021/11/14 06:25:37;;;;;;;;;;;;;;;;;;5050215;28;19909;-49
2021/11/14 06:28:03;;;;;;;;;;;;;;;;;;5050510;28;19960;-51
2021/11/14 06:30:29;;;;;;;;;;;;;;;;;;5060515;28;20007;-49
2021/11/14 06:32:55;;;;;;;;;;;;;;;;;;5055821;28;19912;-48
2021/11/14 06:35:21;;;;;;;;;;;;;;;;;;5050482;28;19931;-50
2021/11/14 06:37:47;;;;;;;;;;;;;;;;;;5050314;28;19967;-51
2021/11/14 06:40:13;;;;;;;;;;;;;;;;;;5049836;28;20001;-49
2021/11/14 06:42:39;;;;;;;;;;;;;;;;;;5052919;28;19927;-51
2021/11/14 06:45:05;;;;;;;;;;;;;;;;;;5070740;28;19909;-49
2021/11/14 06:47:31;;;;;;;;;;;;;;;;;;5056239;28;19920;-51
2021/11/14 06:49:57;;;;;;;;;;;;;;;;;;5062059;28;19909;-48
2021/11/14 06:52:23;;;;;;;;;;;;;;;;;;5062067;28;20006;-47
2021/11/14 06:54:49;;;;;;;;;;;;;;;;;;5052058;28;19909;-51
2021/11/14 06:57:15;;;;;;;;;;;;;;;;;;5053295;28;19918;-50
2021/11/14 06:59:41;;;;;;;;;;;;;;;;;;5070067;28;19923;-48
2021/11/14 07:02:07;;;;;;;;;;;;;;;;;;5053964;28;20007;-50
2021/11/14 07:04:32;;;;;;;;;;;;;;;;;;5066556;28;19958;-49
2021/11/14 07:06:58;;;;;;;;;;;;;;;;;;5069895;28;20419;-55
2021/11/14 07:09:24;;;;;;;;;;;;;;;;;;5069745;28;19912;-48
2021/11/14 07:11:53;;;;;;;;;;;;;;;;;;5066679;28;19930;-50
2021/11/14 07:14:19;;;;;;;;;;;;;;;;;;5050484;28;20442;-47
2021/11/14 07:16:45;;;;;;;;;;;;;;;;;;5050340;28;19921;-48
2021/11/14 07:19:11;;;;;;;;;;;;;;;;;;5049559;28;19917;-49
2021/11/14 07:21:37;;;;;;;;;;;;;;;;;;5049830;28;19944;-50
2021/11/14 07:24:03;;;;;;;;;;;;;;;;;;5054099;28;20003;-49
2021/11/14 07:26:29;;;;;;;;;;;;;;;;;;5069268;28;19912;-51
2021/11/14 07:28:55;;;;;;;;;;;;;;;;;;5069256;28;19913;-48
2021/11/14 07:31:21;;;;;;;;;;;;;;;;;;5069131;28;19913;-51
2021/11/14 07:33:47;;;;;;;;;;;;;;;;;;5067125;28;19908;-50
2021/11/14 07:36:13;;;;;;;;;;;;;;;;;;5068554;28;19994;-50
2021/11/14 07:38:39;;;;;;;;;;;;;;;;;;5069412;28;19950;-48
2021/11/14 07:41:05;;;;;;;;;;;;;;;;;;5069315;28;20003;-49
2021/11/14 07:43:31;;;;;;;;;;;;;;;;;;5068559;28;19913;-48
2021/11/14 07:45:57;;;;;;;;;;;;;;;;;;5069274;28;19920;-48
2021/11/14 07:48:23;;;;;;;;;;;;;;;;;;5064820;28;19913;-48
2021/11/14 07:50:49;;;;;;;;;;;;;;;;;;5049220;28;19917;-47
2021/11/14 07:53:15;;;;;;;;;;;;;;;;;;5064910;28;19908;-51
2021/11/14 07:55:41;;;;;;;;;;;;;;;;;;5089360;28;19942;-51
2021/11/14 07:58:07;;;;;;;;;;;;;;;;;;5072035;28;20012;-52
2021/11/14 08:00:34;;;;;;;;;;;;;;;;;;5049001;28;19913;-50
2021/11/14 08:03:00;;;;;;;;;;;;;;;;;;5050660;28;20326;-50
2021/11/14 08:05:28;;;;;;;;;;;;;;;;;;5048751;28;19917;-51
2021/11/14 08:07:54;;;;;;;;;;;;;;;;;;5060579;28;20357;-52
2021/11/14 08:10:20;;;;;;;;;;;;;;;;;;5049899;28;19912;-49
2021/11/14 08:12:46;;;;;;;;;;;;;;;;;;5048789;28;19917;-51
2021/11/14 08:15:13;;;;;;;;;;;;;;;;;;5048367;28;20350;-49
2021/11/14 08:17:39;;;;;;;;;;;;;;;;;;5068328;28;20007;-49
2021/11/14 08:20:05;;;;;;;;;;;;;;;;;;5066535;28;19920;-50
2021/11/14 08:22:31;;;;;;;;;;;;;;;;;;5059550;28;20387;-52
2021/11/14 08:24:58;;;;;;;;;;;;;;;;;;5048442;28;19917;-49
2021/11/14 08:27:24;;;;;;;;;;;;;;;;;;5048206;28;19927;-51
2021/11/14 08:29:50;;;;;;;;;;;;;;;;;;5048361;28;20585;-49
2021/11/14 08:32:16;;;;;;;;;;;;;;;;;;5049362;28;19919;-51
2021/11/14 08:34:42;;;;;;;;;;;;;;;;;;5048541;28;20372;-49
2021/11/14 08:37:08;;;;;;;;;;;;;;;;;;5048141;28;20007;-49
2021/11/14 08:39:34;;;;;;;;;;;;;;;;;;5048312;28;19916;-51
2021/11/14 08:42:00;;;;;;;;;;;;;;;;;;5048685;28;19909;-47
2021/11/14 08:44:27;;;;;;;;;;;;;;;;;;5065993;28;19958;-47
2021/11/14 08:46:53;;;;;;;;;;;;;;;;;;5058921;28;19913;-50
2021/11/14 08:49:19;;;;;;;;;;;;;;;;;;5047959;28;20034;-51
2021/11/14 08:51:45;;;;;;;;;;;;;;;;;;5048250;28;19913;-51
2021/11/14 08:54:11;;;;;;;;;;;;;;;;;;5047880;28;19920;-50
2021/11/14 08:56:39;;;;;;;;;;;;;;;;;;5054617;28;19916;-51
2021/11/14 08:59:05;;;;;;;;;;;;;;;;;;5067248;28;19913;-52
2021/11/14 09:01:31;;;;;;;;;;;;;;;;;;5067711;28;20035;-49
2021/11/14 09:03:57;;;;;;;;;;;;;;;;;;5068074;28;20015;-48
2021/11/14 09:06:23;;;;;;;;;;;;;;;;;;5057049;28;19912;-51
2021/11/14 09:08:50;;;;;;;;;;;;;;;;;;5066498;28;19912;-47
2021/11/14 09:11:16;;;;;;;;;;;;;;;;;;5067397;28;19981;-51
2021/11/14 09:13:42;;;;;;;;;;;;;;;;;;5068278;28;19921;-52
2021/11/14 09:16:08;;;;;;;;;;;;;;;;;;5065312;28;20388;-51
2021/11/14 09:18:34;;;;;;;;;;;;;;;;;;5068492;28;19962;-50
2021/11/14 09:21:00;;;;;;;;;;;;;;;;;;5052683;28;19913;-51
2021/11/14 09:23:29;;;;;;;;;;;;;;;;;;5048190;28;19909;-52
2021/11/14 09:25:55;;;;;;;;;;;;;;;;;;5048493;28;19916;-51
2021/11/14 09:28:20;;;;;;;;;;;;;;;;;;5047471;28;19927;-48
2021/11/14 09:30:49;;;;;;;;;;;;;;;;;;5048096;28;19920;-51
2021/11/14 09:33:15;;;;;;;;;;;;;;;;;;5047385;28;20264;-51
2021/11/14 09:35:41;;;;;;;;;;;;;;;;;;5050765;28;19942;-50
2021/11/14 09:38:06;;;;;;;;;;;;;;;;;;5047679;28;19963;-52
2021/11/14 09:40:32;;;;;;;;;;;;;;;;;;5046864;28;20000;-51
2021/11/14 09:42:58;;;;;;;;;;;;;;;;;;5047736;28;19912;-50
2021/11/14 09:45:24;;;;;;;;;;;;;;;;;;5052293;28;20277;-50
2021/11/14 09:47:50;;;;;;;;;;;;;;;;;;5047779;28;19909;-48
2021/11/14 09:50:16;;;;;;;;;;;;;;;;;;5051561;28;19974;-51
2021/11/14 09:52:42;;;;;;;;;;;;;;;;;;5056322;28;19955;-49
2021/11/14 09:55:08;;;;;;;;;;;;;;;;;;5053031;28;19912;-50
2021/11/14 09:57:34;;;;;;;;;;;;;;;;;;5066885;28;19991;-47
2021/11/14 10:00:00;;;;;;;;;;;;;;;;;;5068146;28;19931;-49
2021/11/14 10:02:26;;;;;;;;;;;;;;;;;;5067809;28;19916;-50
2021/11/14 10:04:52;;;;;;;;;;;;;;;;;;5065199;28;19916;-48
2021/11/14 10:07:18;;;;;;;;;;;;;;;;;;5051168;28;19937;-49
2021/11/14 10:09:44;;;;;;;;;;;;;;;;;;5055602;28;19955;-51
2021/11/14 10:12:10;;;;;;;;;;;;;;;;;;5056429;28;19939;-50
2021/11/14 10:14:36;;;;;;;;;;;;;;;;;;5047569;28;19909;-51
2021/11/14 10:17:02;;;;;;;;;;;;;;;;;;5048014;28;19978;-51
2021/11/14 10:19:28;;;;;;;;;;;;;;;;;;5058507;28;19995;-51
2021/11/14 10:21:54;;;;;;;;;;;;;;;;;;5067754;28;19985;-51
2021/11/14 10:24:20;;;;;;;;;;;;;;;;;;5058029;28;19913;-48
2021/11/14 10:26:46;;;;;;;;;;;;;;;;;;5047641;28;19909;-52
2021/11/14 10:29:12;;;;;;;;;;;;;;;;;;5046976;28;19917;-50
2021/11/14 10:31:38;;;;;;;;;;;;;;;;;;5047497;28;20016;-49
2021/11/14 10:34:04;;;;;;;;;;;;;;;;;;5049953;28;19923;-51
2021/11/14 10:36:30;;;;;;;;;;;;;;;;;;5061674;28;19935;-48
2021/11/14 10:38:56;;;;;;;;;;;;;;;;;;5052178;28;19991;-50
2021/11/14 10:41:21;;;;;;;;;;;;;;;;;;5052803;28;20011;-50
2021/11/14 10:43:48;;;;;;;;;;;;;;;;;;5062579;28;19913;-50
2021/11/14 10:46:14;;;;;;;;;;;;;;;;;;5046445;28;20279;-50
2021/11/14 10:48:40;;;;;;;;;;;;;;;;;;5054038;28;19916;-51
2021/11/14 10:51:11;;;;;;;;;;;;;;;;;;5066318;28;19916;-51
2021/11/14 10:53:37;;;;;;;;;;;;;;;;;;5067092;28;19905;-51
2021/11/14 10:56:03;;;;;;;;;;;;;;;;;;5067678;28;19977;-50
2021/11/14 10:58:29;;;;;;;;;;;;;;;;;;5053336;28;19924;-48
2021/11/14 11:00:56;;;;;;;;;;;;;;;;;;5062494;28;19966;-50
2021/11/14 11:03:22;;;;;;;;;;;;;;;;;;5066822;28;20340;-50
2021/11/14 11:05:48;;;;;;;;;;;;;;;;;;5061735;28;19917;-51
2021/11/14 11:08:14;;;;;;;;;;;;;;;;;;5050491;28;19913;-51
2021/11/14 11:10:40;;;;;;;;;;;;;;;;;;5048889;28;19913;-51
2021/11/14 11:13:06;;;;;;;;;;;;;;;;;;5051154;28;19978;-50
2021/11/14 11:15:32;;;;;;;;;;;;;;;;;;5050922;28;19917;-48
2021/11/14 11:17:57;;;;;;;;;;;;;;;;;;5050598;28;19916;-50
2021/11/14 11:20:23;;;;;;;;;;;;;;;;;;5050337;28;19955;-50
2021/11/14 11:22:49;;;;;;;;;;;;;;;;;;5065863;28;19912;-51
2021/11/14 11:25:15;;;;;;;;;;;;;;;;;;5070377;28;19909;-47
2021/11/14 11:27:41;;;;;;;;;;;;;;;;;;5064941;28;19920;-48
2021/11/14 11:30:07;;;;;;;;;;;;;;;;;;5066639;28;19913;-51
2021/11/14 11:32:33;;;;;;;;;;;;;;;;;;5069430;28;20422;-47
2021/11/14 11:34:59;;;;;;;;;;;;;;;;;;5069688;28;19908;-50
2021/11/14 11:37:25;;;;;;;;;;;;;;;;;;5068700;28;19912;-47
2021/11/14 11:39:51;;;;;;;;;;;;;;;;;;5057400;28;19948;-50
2021/11/14 11:42:17;;;;;;;;;;;;;;;;;;5048802;28;19999;-48
2021/11/14 11:44:43;;;;;;;;;;;;;;;;;;5048962;28;20023;-50
2021/11/14 11:47:10;;;;;;;;;;;;;;;;;;5048869;28;20373;-48
2021/11/14 11:49:36;;;;;;;;;;;;;;;;;;5061287;28;20958;-48
2021/11/14 11:52:04;;;;;;;;;;;;;;;;;;5053771;28;19923;-48
2021/11/14 11:54:30;;;;;;;;;;;;;;;;;;5054130;28;19943;-49
2021/11/14 11:56:56;;;;;;;;;;;;;;;;;;5048339;28;19932;-50
2021/11/14 11:59:22;;;;;;;;;;;;;;;;;;5049391;28;20015;-49
2021/11/14 12:01:48;;;;;;;;;;;;;;;;;;5049221;28;19966;-49
2021/11/14 12:04:15;;;;;;;;;;;;;;;;;;5049128;28;20058;-50
2021/11/14 12:06:41;;;;;;;;;;;;;;;;;;5069675;28;19912;-50
2021/11/14 12:09:07;;;;;;;;;;;;;;;;;;5059089;28;19913;-50
2021/11/14 12:11:33;;;;;;;;;;;;;;;;;;5069487;28;19917;-51
2021/11/14 12:13:59;;;;;;;;;;;;;;;;;;5069574;28;19912;-48
2021/11/14 12:16:26;;;;;;;;;;;;;;;;;;5060286;28;20026;-51
2021/11/14 12:18:52;;;;;;;;;;;;;;;;;;5061388;28;19921;-51
2021/11/14 12:21:18;;;;;;;;;;;;;;;;;;5066676;28;19915;-47
2021/11/14 12:23:44;;;;;;;;;;;;;;;;;;5068417;28;19934;-50
2021/11/14 12:26:10;;;;;;;;;;;;;;;;;;5066900;28;19919;-48
2021/11/14 12:28:36;;;;;;;;;;;;;;;;;;5066974;28;20007;-48
2021/11/14 12:31:07;;;;;;;;;;;;;;;;;;5068386;28;19917;-52
2021/11/14 12:33:33;;;;;;;;;;;;;;;;;;5068815;28;19966;-49
2021/11/14 12:36:03;;;;;;;;;;;;;;;;;;5068371;28;19912;-50
2021/11/14 12:38:29;;;;;;;;;;;;;;;;;;5056445;28;19964;-49
2021/11/14 12:40:56;;;;;;;;;;;;;;;;;;5061013;28;20333;-52
2021/11/14 12:43:22;;;;;;;;;;;;;;;;;;5064803;28;19917;-51
2021/11/14 12:45:48;;;;;;;;;;;;;;;;;;5056401;28;19913;-49
2021/11/14 12:48:14;;;;;;;;;;;;;;;;;;5056608;28;19951;-51
2021/11/14 12:50:40;;;;;;;;;;;;;;;;;;5067984;28;19909;-47
2021/11/14 12:53:07;;;;;;;;;;;;;;;;;;5060088;28;20277;-51
2021/11/14 12:55:33;;;;;;;;;;;;;;;;;;5048262;28;19958;-51
2021/11/14 12:57:59;;;;;;;;;;;;;;;;;;5047472;28;19916;-51
2021/11/14 13:00:24;;;;;;;;;;;;;;;;;;5047473;28;19923;-51
2021/11/14 13:02:50;;;;;;;;;;;;;;;;;;5048025;28;20008;-51
2021/11/14 13:05:16;;;;;;;;;;;;;;;;;;5050912;28;19923;-49
2021/11/14 13:07:42;;;;;;;;;;;;;;;;;;5051706;28;20282;-50
2021/11/14 13:10:08;;;;;;;;;;;;;;;;;;5047609;28;19913;-51
2021/11/14 13:12:34;;;;;;;;;;;;;;;;;;5047536;28;19979;-49
2021/11/14 13:15:00;;;;;;;;;;;;;;;;;;5048206;28;19909;-49
2021/11/14 13:17:28;;;;;;;;;;;;;;;;;;5047268;28;19920;-50
2021/11/14 13:19:55;;;;;;;;;;;;;;;;;;5047680;28;19909;-49
2021/11/14 13:22:26;;;;;;;;;;;;;;;;;;5046245;28;20221;-48
2021/11/14 13:24:52;;;;;;;;;;;;;;;;;;5047569;28;20300;-48
2021/11/14 13:27:18;;;;;;;;;;;;;;;;;;5046931;28;19920;-48
2021/11/14 13:29:44;;;;;;;;;;;;;;;;;;5056607;28;20391;-50
2021/11/14 13:32:10;;;;;;;;;;;;;;;;;;5066932;28;19951;-47
2021/11/14 13:34:36;;;;;;;;;;;;;;;;;;5052943;28;19912;-48
2021/11/14 13:37:02;;;;;;;;;;;;;;;;;;5056230;28;19924;-50
2021/11/14 13:39:28;;;;;;;;;;;;;;;;;;5066395;28;19913;-48
2021/11/14 13:41:54;;;;;;;;;;;;;;;;;;5063326;28;19927;-49
2021/11/14 13:44:20;;;;;;;;;;;;;;;;;;5064677;28;20384;-47
2021/11/14 13:46:46;;;;;;;;;;;;;;;;;;5054831;28;19982;-48
2021/11/14 13:49:12;;;;;;;;;;;;;;;;;;5066650;28;19908;-47
2021/11/14 13:51:38;;;;;;;;;;;;;;;;;;5067176;28;20082;-50
2021/11/14 13:54:05;;;;;;;;;;;;;;;;;;5071592;28;19938;-47
2021/11/14 13:56:31;;;;;;;;;;;;;;;;;;5088077;28;19912;-51
2021/11/14 13:58:57;;;;;;;;;;;;;;;;;;5083167;28;19908;-50
2021/11/14 14:01:23;;;;;;;;;;;;;;;;;;5051547;28;19939;-52
2021/11/14 14:03:49;;;;;;;;;;;;;;;;;;5056833;28;19927;-47
2021/11/14 14:06:15;;;;;;;;;;;;;;;;;;5061276;28;19978;-48
2021/11/14 14:08:41;;;;;;;;;;;;;;;;;;5048183;28;19912;-51
2021/11/14 14:11:06;;;;;;;;;;;;;;;;;;5058164;28;19967;-51
2021/11/14 14:13:33;;;;;;;;;;;;;;;;;;5052879;28;20194;-51
2021/11/14 14:15:59;;;;;;;;;;;;;;;;;;5057474;28;19917;-47
2021/11/14 14:18:25;;;;;;;;;;;;;;;;;;5047829;28;20307;-48
2021/11/14 14:20:53;;;;;;;;;;;;;;;;;;5065655;28;19955;-48
2021/11/14 14:23:19;;;;;;;;;;;;;;;;;;5061431;28;20409;-47
2021/11/14 14:25:44;;;;;;;;;;;;;;;;;;5049921;28;19955;-47
2021/11/14 14:28:10;;;;;;;;;;;;;;;;;;5045465;28;19961;-47
2021/11/14 14:30:36;;;;;;;;;;;;;;;;;;5057610;28;20387;-47
2021/11/14 14:33:02;;;;;;;;;;;;;;;;;;5046110;28;19920;-46
2021/11/14 14:35:28;;;;;;;;;;;;;;;;;;5055067;28;19908;-46
2021/11/14 14:37:54;;;;;;;;;;;;;;;;;;5064419;28;19920;-46
2021/11/14 14:40:20;;;;;;;;;;;;;;;;;;5064553;28;20005;-47
2021/11/14 14:42:46;;;;;;;;;;;;;;;;;;5065379;28;19912;-46
2021/11/14 14:45:12;;;;;;;;;;;;;;;;;;5060489;28;19912;-47
2021/11/14 14:47:38;;;;;;;;;;;;;;;;;;5047472;28;19916;-48
2021/11/14 14:50:04;;;;;;;;;;;;;;;;;;5061270;28;19908;-45
2021/11/14 14:52:30;;;;;;;;;;;;;;;;;;5069267;28;19923;-49
2021/11/14 14:54:56;;;;;;;;;;;;;;;;;;5066146;28;20156;-47
2021/11/14 14:57:21;;;;;;;;;;;;;;;;;;5068581;28;19948;-47
2021/11/14 14:59:47;;;;;;;;;;;;;;;;;;5069057;28;19958;-46
2021/11/14 15:02:13;;;;;;;;;;;;;;;;;;5068689;28;20291;-45
2021/11/14 15:04:39;;;;;;;;;;;;;;;;;;5057023;28;19912;-48
2021/11/14 15:07:05;;;;;;;;;;;;;;;;;;5048719;28;19916;-45
2021/11/14 15:09:31;;;;;;;;;;;;;;;;;;5048866;28;19935;-48
2021/11/14 15:11:57;;;;;;;;;;;;;;;;;;5048731;28;19917;-46
2021/11/14 15:14:23;;;;;;;;;;;;;;;;;;5049113;28;19920;-47
2021/11/14 15:16:49;;;;;;;;;;;;;;;;;;5068729;28;20027;-46
2021/11/14 15:19:15;;;;;;;;;;;;;;;;;;5079312;28;19917;-50
2021/11/14 15:21:41;;;;;;;;;;;;;;;;;;5066000;28;20393;-49
2021/11/14 15:24:07;;;;;;;;;;;;;;;;;;5048662;28;19913;-49
2021/11/14 15:26:33;;;;;;;;;;;;;;;;;;5053219;28;20307;-47
2021/11/14 15:28:59;;;;;;;;;;;;;;;;;;5066198;28;19916;-47
2021/11/14 15:31:26;;;;;;;;;;;;;;;;;;5051871;28;19920;-45
2021/11/14 15:33:52;;;;;;;;;;;;;;;;;;5055815;28;19912;-47
2021/11/14 15:36:18;;;;;;;;;;;;;;;;;;5056712;28;19912;-46
2021/11/14 15:38:44;;;;;;;;;;;;;;;;;;5053287;28;19913;-50
2021/11/14 15:41:10;;;;;;;;;;;;;;;;;;5059723;28;19912;-46
2021/11/14 15:43:36;;;;;;;;;;;;;;;;;;5061536;28;19920;-46
2021/11/14 15:46:02;;;;;;;;;;;;;;;;;;5062117;28;19909;-49
2021/11/14 15:48:28;;;;;;;;;;;;;;;;;;5054690;28;20342;-49
2021/11/14 15:50:54;;;;;;;;;;;;;;;;;;5047773;28;19913;-47
2021/11/14 15:53:20;;;;;;;;;;;;;;;;;;5054009;28;20035;-47
2021/11/14 15:55:47;;;;;;;;;;;;;;;;;;5051016;28;19913;-47
2021/11/14 15:58:13;;;;;;;;;;;;;;;;;;5049447;28;19920;-47
2021/11/14 16:00:39;;;;;;;;;;;;;;;;;;5067914;28;19983;-46
2021/11/14 16:03:05;;;;;;;;;;;;;;;;;;5064572;28;19913;-46
2021/11/14 16:05:32;;;;;;;;;;;;;;;;;;5067272;28;19939;-48
2021/11/14 16:07:58;;;;;;;;;;;;;;;;;;5055047;28;19915;-46
2021/11/14 16:10:24;;;;;;;;;;;;;;;;;;5064995;28;20319;-46
2021/11/14 16:12:49;;;;;;;;;;;;;;;;;;5059260;28;19924;-46
2021/11/14 16:15:16;;;;;;;;;;;;;;;;;;5063975;28;19917;-49
2021/11/14 16:17:42;;;;;;;;;;;;;;;;;;5056080;28;20399;-50
2021/11/14 16:20:08;;;;;;;;;;;;;;;;;;5057762;28;19920;-49
2021/11/14 16:22:34;;;;;;;;;;;;;;;;;;5053781;28;19920;-46
2021/11/14 16:25:01;;;;;;;;;;;;;;;;;;5059391;28;20407;-46
2021/11/14 16:27:27;;;;;;;;;;;;;;;;;;5057904;28;19921;-48
2021/11/14 16:29:53;;;;;;;;;;;;;;;;;;5047222;28;20267;-46
2021/11/14 16:32:19;;;;;;;;;;;;;;;;;;5047668;28;19909;-47
2021/11/14 16:34:49;;;;;;;;;;;;;;;;;;5060871;28;19966;-46
2021/11/14 16:37:15;;;;;;;;;;;;;;;;;;5079317;28;20299;-46
2021/11/14 16:39:42;;;;;;;;;;;;;;;;;;5069636;28;19942;-48